Time;durP1;ratioP1;P1;durP2;ratioP2;P2;SDS_P1;SDS_P2;PMS_P1;PMS_P2;Temp;Humidity;BMP_temperature;BMP_pressure;BME280_temperature;BME280_humidity;BME280_pressure;Samples;Min_cycle;Max_cycle;Signal;HPM_P1;HPM_P2
2023/01/01 00:01:20;;;;;;;11.77;6.00;;;13.80;99.90;;;;;;5020525;28;20633;-80
2023/01/01 00:03:49;;;;;;;13.03;6.77;;;13.80;99.90;;;;;;5010588;28;20226;-80
2023/01/01 00:06:17;;;;;;;13.57;5.80;;;13.90;99.90;;;;;;5021420;28;20236;-80
2023/01/01 00:08:44;;;;;;;10.77;4.93;;;13.90;99.90;;;;;;5024922;28;20233;-79
2023/01/01 00:11:11;;;;;;;12.90;5.57;;;13.90;99.90;;;;;;5020076;28;20561;-80
2023/01/01 00:13:41;;;;;;;11.60;4.73;;;14.00;99.90;;;;;;5025124;28;20746;-80
2023/01/01 00:16:09;;;;;;;14.00;5.37;;;14.00;99.90;;;;;;5021117;28;20331;-80
2023/01/01 00:18:36;;;;;;;13.60;5.00;;;14.00;99.90;;;;;;5020300;28;20238;-79
2023/01/01 00:21:03;;;;;;;10.73;4.47;;;14.00;99.90;;;;;;5012013;28;20231;-80
2023/01/01 00:23:31;;;;;;;10.97;4.73;;;14.00;99.90;;;;;;5010201;28;20241;-80
2023/01/01 00:25:59;;;;;;;13.00;5.00;;;14.00;99.90;;;;;;5007010;28;20994;-79
2023/01/01 00:28:26;;;;;;;10.40;4.77;;;14.00;99.90;;;;;;5006145;28;20295;-81
2023/01/01 00:30:52;;;;;;;20.37;10.97;;;14.00;99.90;;;;;;5013120;28;20310;-81
2023/01/01 00:33:19;;;;;;;28.17;17.37;;;14.00;99.90;;;;;;5012419;28;20736;-81
2023/01/01 00:35:46;;;;;;;10.10;5.13;;;14.00;99.90;;;;;;5021656;28;20237;-81
2023/01/01 00:38:14;;;;;;;13.23;5.63;;;14.00;99.90;;;;;;5020670;28;20943;-80
2023/01/01 00:40:42;;;;;;;13.83;6.50;;;14.10;99.90;;;;;;5019270;28;20226;-81
2023/01/01 00:43:09;;;;;;;9.33;4.20;;;14.10;99.90;;;;;;5018645;28;20216;-81
2023/01/01 00:45:36;;;;;;;10.07;4.83;;;14.10;99.90;;;;;;5016629;28;20233;-80
2023/01/01 00:48:03;;;;;;;13.93;4.70;;;14.10;99.90;;;;;;5022193;28;20226;-80
2023/01/01 00:50:29;;;;;;;9.10;4.17;;;14.10;99.90;;;;;;5010756;28;20908;-79
2023/01/01 00:52:56;;;;;;;9.07;4.90;;;14.10;99.90;;;;;;5019645;28;20271;-80
2023/01/01 00:55:23;;;;;;;17.43;5.83;;;14.10;99.90;;;;;;5019829;28;20241;-79
2023/01/01 00:57:51;;;;;;;9.87;4.67;;;14.20;99.90;;;;;;5020468;28;20232;-80
2023/01/01 01:00:19;;;;;;;13.23;5.13;;;14.10;99.90;;;;;;5019402;28;20227;-80
2023/01/01 01:02:45;;;;;;;10.03;4.03;;;14.10;99.90;;;;;;5015312;28;20235;-80
2023/01/01 01:05:12;;;;;;;10.57;4.40;;;14.20;99.90;;;;;;5020356;28;20233;-80
2023/01/01 01:07:39;;;;;;;11.53;4.10;;;14.20;99.90;;;;;;5018204;28;20740;-80
2023/01/01 01:10:08;;;;;;;11.13;4.43;;;14.20;99.90;;;;;;5021887;28;20222;-80
2023/01/01 01:12:35;;;;;;;10.97;4.47;;;14.30;99.90;;;;;;5023596;28;20239;-82
2023/01/01 01:15:05;;;;;;;11.17;4.20;;;14.20;99.90;;;;;;5015845;28;20310;-81
2023/01/01 01:17:32;;;;;;;9.40;4.00;;;14.20;99.90;;;;;;5020456;28;20315;-80
2023/01/01 01:19:59;;;;;;;11.43;5.53;;;14.20;99.90;;;;;;5014351;28;20262;-81
2023/01/01 01:22:26;;;;;;;12.67;5.37;;;14.20;99.90;;;;;;5020993;28;20235;-81
2023/01/01 01:24:53;;;;;;;11.83;4.27;;;14.20;99.90;;;;;;5013731;28;20704;-81
2023/01/01 01:27:20;;;;;;;11.90;4.20;;;14.30;99.90;;;;;;5016429;28;20648;-80
2023/01/01 01:29:46;;;;;;;8.33;4.30;;;14.30;99.90;;;;;;5024240;28;20291;-80
2023/01/01 01:32:14;;;;;;;10.33;4.17;;;14.30;99.90;;;;;;5016569;28;20250;-81
2023/01/01 01:34:41;;;;;;;12.30;4.13;;;14.30;99.90;;;;;;5018411;28;20227;-82
2023/01/01 01:37:08;;;;;;;11.33;4.13;;;14.30;99.90;;;;;;5019075;28;20231;-82
2023/01/01 01:39:35;;;;;;;12.13;4.33;;;14.30;99.90;;;;;;5024253;28;20235;-82
2023/01/01 01:42:02;;;;;;;9.70;3.70;;;14.30;99.90;;;;;;5026227;28;20230;-82
2023/01/01 01:44:51;;;;;;;11.67;3.87;;;14.30;99.90;;;;;;5016023;28;20232;-82
2023/01/01 01:47:25;;;;;;;11.73;3.83;;;14.30;99.90;;;;;;5009569;28;20255;-81
2023/01/01 01:49:55;;;;;;;11.63;3.90;;;14.30;99.90;;;;;;5007426;28;20294;-81
2023/01/01 01:52:22;;;;;;;10.67;4.00;;;14.30;99.90;;;;;;5020408;28;20214;-81
2023/01/01 01:54:49;;;;;;;15.50;4.17;;;14.30;99.90;;;;;;5011304;28;20745;-82
2023/01/01 01:57:16;;;;;;;7.37;3.60;;;14.30;99.90;;;;;;5023130;28;20238;-81
2023/01/01 01:59:50;;;;;;;9.63;4.03;;;14.30;99.90;;;;;;5008696;28;20260;-82
2023/01/01 02:02:26;;;;;;;13.13;4.63;;;14.40;99.90;;;;;;5016038;28;20223;-81
2023/01/01 02:04:53;;;;;;;15.87;3.87;;;14.30;99.90;;;;;;5014395;28;20232;-82
2023/01/01 02:07:20;;;;;;;12.70;4.13;;;14.40;99.90;;;;;;5013654;28;20221;-81
2023/01/01 02:09:47;;;;;;;9.23;3.80;;;14.40;99.90;;;;;;5018359;28;20326;-80
2023/01/01 02:12:13;;;;;;;10.07;3.97;;;14.30;99.90;;;;;;5006875;28;20216;-80
2023/01/01 02:14:40;;;;;;;14.83;4.17;;;14.30;99.90;;;;;;5010507;28;20244;-81
2023/01/01 02:17:11;;;;;;;9.20;3.93;;;14.40;99.90;;;;;;5018384;28;20239;-81
2023/01/01 02:19:51;;;;;;;9.83;3.90;;;14.40;99.90;;;;;;5015927;28;20262;-81
2023/01/01 02:22:28;;;;;;;8.23;3.70;;;14.40;99.90;;;;;;5011769;28;20663;-81
2023/01/01 02:25:09;;;;;;;8.63;3.47;;;14.40;99.90;;;;;;5029197;28;20227;-82
2023/01/01 02:27:49;;;;;;;9.67;3.80;;;14.40;99.90;;;;;;5024003;28;20228;-82
2023/01/01 02:30:18;;;;;;;10.43;4.13;;;14.40;99.90;;;;;;5024223;28;20278;-81
2023/01/01 02:32:48;;;;;;;10.50;4.17;;;14.40;99.90;;;;;;5021965;28;20318;-80
2023/01/01 02:35:34;;;;;;;9.93;3.70;;;14.40;99.90;;;;;;5020061;28;20235;-80
2023/01/01 02:38:06;;;;;;;7.93;3.40;;;14.40;99.90;;;;;;5023565;28;20224;-80
2023/01/01 02:40:35;;;;;;;9.17;3.70;;;14.40;99.90;;;;;;5025463;28;20259;-81
2023/01/01 02:43:04;;;;;;;9.50;3.70;;;14.40;99.90;;;;;;5025700;28;21253;-80
2023/01/01 02:45:33;;;;;;;9.40;3.87;;;14.50;99.90;;;;;;5016243;28;20319;-80
2023/01/01 02:48:04;;;;;;;8.53;3.80;;;14.40;99.90;;;;;;5011180;28;20229;-80
2023/01/01 02:50:32;;;;;;;9.10;3.50;;;14.40;99.90;;;;;;5022437;28;20703;-80
2023/01/01 02:53:13;;;;;;;7.23;3.73;;;14.40;99.90;;;;;;5023483;28;20236;-80
2023/01/01 02:55:53;;;;;;;9.03;4.00;;;14.50;99.90;;;;;;5018825;28;20256;-81
2023/01/01 03:01:22;;;;;;;8.63;3.57;;;14.40;99.90;;;;;;5018028;28;20244;-81
2023/01/01 03:04:01;;;;;;;5.80;3.47;;;14.40;99.90;;;;;;5020899;28;20231;-79
2023/01/01 03:06:37;;;;;;;8.67;3.83;;;14.40;99.90;;;;;;5023476;28;20303;-81
2023/01/01 03:09:14;;;;;;;8.23;3.30;;;14.40;99.90;;;;;;5025735;28;20551;-81
2023/01/01 03:11:50;;;;;;;8.33;4.30;;;14.30;99.90;;;;;;5025048;28;20226;-81
2023/01/01 03:14:25;;;;;;;8.90;4.07;;;14.30;99.90;;;;;;5019634;28;20219;-80
2023/01/01 03:16:59;;;;;;;13.53;4.43;;;14.30;99.90;;;;;;5019924;28;20235;-80
2023/01/01 03:19:29;;;;;;;11.20;4.93;;;14.20;99.90;;;;;;5022661;28;20237;-80
2023/01/01 03:21:59;;;;;;;10.43;4.50;;;14.10;99.90;;;;;;5024297;28;20238;-79
2023/01/01 03:24:34;;;;;;;11.10;4.83;;;14.00;99.90;;;;;;5023699;28;20239;-80
2023/01/01 03:27:07;;;;;;;9.97;5.03;;;13.90;99.90;;;;;;5020688;28;20239;-81
2023/01/01 03:29:37;;;;;;;11.13;4.50;;;13.80;99.90;;;;;;5019545;28;20224;-81
2023/01/01 03:32:08;;;;;;;8.03;4.60;;;13.80;99.90;;;;;;5016497;28;20207;-81
2023/01/01 03:34:39;;;;;;;11.03;4.97;;;13.70;99.90;;;;;;5019980;28;20233;-80
2023/01/01 03:37:10;;;;;;;11.77;5.77;;;13.60;99.90;;;;;;5017646;28;20261;-80
2023/01/01 03:39:43;;;;;;;7.30;5.10;;;13.50;99.90;;;;;;5018220;28;20230;-80
2023/01/01 03:42:17;;;;;;;8.97;5.33;;;13.50;99.90;;;;;;5015905;28;20219;-80
2023/01/01 03:44:47;;;;;;;9.43;5.47;;;13.40;99.90;;;;;;5018943;28;20240;-80
2023/01/01 03:47:16;;;;;;;11.67;5.33;;;13.40;99.90;;;;;;5023053;28;20233;-80
2023/01/01 03:49:43;;;;;;;9.80;4.50;;;13.40;99.90;;;;;;5019808;28;20279;-80
2023/01/01 03:52:23;;;;;;;10.67;4.80;;;13.40;99.90;;;;;;5017641;28;20317;-79
2023/01/01 03:54:55;;;;;;;10.63;5.20;;;13.40;99.90;;;;;;5020140;28;20228;-79
2023/01/01 03:57:28;;;;;;;11.77;5.70;;;13.30;99.90;;;;;;5023191;28;20288;-79
2023/01/01 04:00:06;;;;;;;14.30;5.73;;;13.30;99.90;;;;;;5022472;28;20227;-79
2023/01/01 04:02:45;;;;;;;12.03;5.20;;;13.30;99.90;;;;;;5020740;28;20253;-79
2023/01/01 04:05:13;;;;;;;11.03;5.30;;;13.40;99.90;;;;;;5012322;28;20235;-79
2023/01/01 04:07:41;;;;;;;9.07;5.13;;;13.40;99.90;;;;;;5020979;28;20248;-80
2023/01/01 04:10:16;;;;;;;7.63;4.30;;;13.40;99.90;;;;;;5019328;28;20223;-80
2023/01/01 04:12:46;;;;;;;8.30;4.77;;;13.40;99.90;;;;;;5021450;28;20228;-79
2023/01/01 04:15:13;;;;;;;9.93;4.07;;;13.50;99.90;;;;;;5017424;28;20236;-80
2023/01/01 04:17:42;;;;;;;9.33;4.40;;;13.50;99.90;;;;;;5018404;28;20305;-80
2023/01/01 04:20:10;;;;;;;9.93;5.03;;;13.50;99.90;;;;;;5017158;28;20257;-80
2023/01/01 04:22:36;;;;;;;10.53;4.93;;;13.50;99.90;;;;;;5021455;28;20534;-80
2023/01/01 04:25:04;;;;;;;9.77;4.90;;;13.50;99.90;;;;;;5021174;28;20221;-80
2023/01/01 04:27:31;;;;;;;9.70;4.87;;;13.50;99.90;;;;;;5023922;28;20687;-81
2023/01/01 04:29:58;;;;;;;8.70;4.57;;;13.50;99.90;;;;;;5024348;28;20317;-81
2023/01/01 04:32:25;;;;;;;7.87;4.13;;;13.50;99.90;;;;;;5020844;28;20237;-81
2023/01/01 04:34:53;;;;;;;9.87;4.47;;;13.50;99.90;;;;;;5021446;28;20598;-81
2023/01/01 04:37:19;;;;;;;9.20;4.30;;;13.50;99.90;;;;;;5018623;28;20766;-81
2023/01/01 04:39:46;;;;;;;9.27;4.83;;;13.50;99.90;;;;;;5021317;28;20217;-80
2023/01/01 04:42:13;;;;;;;8.27;4.20;;;13.50;99.90;;;;;;5026330;22;20244;-81
2023/01/01 04:44:39;;;;;;;9.20;4.40;;;13.60;99.90;;;;;;5019897;28;20232;-81
2023/01/01 04:47:07;;;;;;;7.80;4.37;;;13.60;99.90;;;;;;5015767;28;20333;-81
2023/01/01 04:49:34;;;;;;;11.63;4.50;;;13.60;99.90;;;;;;5016143;28;20222;-81
2023/01/01 04:52:03;;;;;;;8.37;4.27;;;13.60;99.90;;;;;;5030065;28;20225;-81
2023/01/01 04:54:30;;;;;;;9.50;4.30;;;13.60;99.90;;;;;;5035114;28;20246;-80
2023/01/01 04:56:57;;;;;;;9.63;4.30;;;13.70;99.90;;;;;;5036188;28;20225;-80
2023/01/01 04:59:24;;;;;;;10.23;4.33;;;13.70;99.90;;;;;;5035992;28;20233;-80
2023/01/01 05:01:51;;;;;;;10.33;4.67;;;13.70;99.90;;;;;;5037629;28;20286;-81
2023/01/01 05:04:18;;;;;;;8.03;4.00;;;13.60;99.90;;;;;;5016470;28;20696;-80
2023/01/01 05:06:45;;;;;;;8.83;3.73;;;13.60;99.90;;;;;;5033365;28;20649;-81
2023/01/01 05:09:13;;;;;;;8.27;3.70;;;13.60;99.90;;;;;;5020512;28;20251;-81
2023/01/01 05:11:40;;;;;;;7.70;3.60;;;13.70;99.90;;;;;;5032914;28;20257;-80
2023/01/01 05:14:07;;;;;;;6.93;3.20;;;13.70;99.90;;;;;;5016319;28;20316;-82
2023/01/01 05:16:36;;;;;;;7.30;3.77;;;13.70;99.90;;;;;;5018051;28;20245;-81
2023/01/01 05:19:05;;;;;;;8.10;3.87;;;13.70;99.90;;;;;;5039270;28;20222;-81
2023/01/01 05:21:33;;;;;;;9.10;3.40;;;13.70;99.90;;;;;;5037477;28;20758;-81
2023/01/01 05:24:02;;;;;;;10.00;3.33;;;13.80;99.90;;;;;;5028778;28;20356;-81
2023/01/01 05:26:32;;;;;;;6.50;3.43;;;13.80;99.90;;;;;;5020769;28;20227;-81
2023/01/01 05:29:00;;;;;;;7.73;3.80;;;13.80;99.90;;;;;;5021032;28;20216;-81
2023/01/01 05:31:29;;;;;;;10.57;3.70;;;13.80;99.90;;;;;;5016279;28;20250;-81
2023/01/01 05:33:56;;;;;;;8.63;3.90;;;13.90;99.90;;;;;;5033011;28;20310;-81
2023/01/01 05:36:24;;;;;;;7.20;3.43;;;13.90;99.90;;;;;;5020221;28;20214;-81
2023/01/01 05:38:52;;;;;;;8.17;3.80;;;13.90;99.90;;;;;;5019611;28;20219;-81
2023/01/01 05:41:20;;;;;;;7.77;3.33;;;13.90;99.90;;;;;;5021805;28;20247;-82
2023/01/01 05:43:50;;;;;;;6.53;3.20;;;13.90;99.90;;;;;;5030295;28;20272;-82
2023/01/01 05:46:18;;;;;;;5.80;3.03;;;13.90;99.90;;;;;;5041318;28;20254;-82
2023/01/01 05:48:45;;;;;;;11.63;3.30;;;14.10;99.90;;;;;;5035185;28;20231;-81
2023/01/01 05:51:14;;;;;;;7.97;3.40;;;14.00;99.90;;;;;;5028115;28;20632;-81
2023/01/01 05:53:41;;;;;;;6.83;3.23;;;14.00;99.90;;;;;;5020510;28;20229;-81
2023/01/01 05:56:08;;;;;;;6.00;2.83;;;14.00;99.90;;;;;;5022013;28;20229;-81
2023/01/01 05:58:35;;;;;;;7.63;3.27;;;14.00;99.90;;;;;;5019674;28;20315;-81
2023/01/01 06:01:09;;;;;;;6.10;3.23;;;14.00;99.90;;;;;;5046203;28;20480;-81
2023/01/01 06:03:36;;;;;;;9.63;3.30;;;14.00;99.90;;;;;;5026866;28;20314;-81
2023/01/01 06:06:04;;;;;;;6.43;2.80;;;14.00;99.90;;;;;;5023325;28;20232;-81
2023/01/01 06:08:31;;;;;;;12.20;4.07;;;14.10;99.90;;;;;;5018963;28;20310;-81
2023/01/01 06:10:59;;;;;;;5.67;2.40;;;14.10;99.90;;;;;;5042699;28;20262;-82
2023/01/01 06:13:26;;;;;;;10.53;2.93;;;14.10;99.90;;;;;;5040761;28;20228;-81
2023/01/01 06:15:54;;;;;;;6.57;2.80;;;14.10;99.90;;;;;;5039229;28;20224;-81
2023/01/01 06:18:22;;;;;;;6.07;2.60;;;14.10;99.90;;;;;;5039919;28;20228;-81
2023/01/01 06:20:49;;;;;;;6.33;2.70;;;14.20;99.90;;;;;;5022131;28;20797;-80
2023/01/01 06:23:16;;;;;;;6.90;2.60;;;14.10;99.90;;;;;;5021189;28;21015;-79
2023/01/01 06:25:43;;;;;;;7.67;3.53;;;14.10;99.90;;;;;;5036581;28;20233;-81
2023/01/01 06:28:10;;;;;;;8.23;2.40;;;14.20;99.90;;;;;;5024627;28;20310;-80
2023/01/01 06:30:38;;;;;;;7.80;2.53;;;14.20;99.90;;;;;;5035221;28;20645;-81
2023/01/01 06:33:05;;;;;;;5.93;2.90;;;14.10;99.90;;;;;;5037531;28;20246;-82
2023/01/01 06:35:33;;;;;;;6.03;2.80;;;14.10;99.90;;;;;;5045471;28;20238;-81
2023/01/01 06:38:01;;;;;;;7.30;3.23;;;14.10;99.90;;;;;;5049742;28;20236;-81
2023/01/01 06:40:28;;;;;;;7.50;2.77;;;14.10;99.90;;;;;;5019905;28;20249;-80
2023/01/01 06:42:56;;;;;;;5.63;2.57;;;14.10;99.90;;;;;;5020191;28;20286;-80
2023/01/01 06:45:23;;;;;;;6.53;2.77;;;14.20;99.90;;;;;;5021639;28;20703;-80
2023/01/01 06:47:49;;;;;;;4.97;2.70;;;14.10;99.90;;;;;;5045625;28;20934;-80
2023/01/01 06:50:16;;;;;;;5.90;2.30;;;14.10;99.90;;;;;;5022994;28;20785;-79
2023/01/01 06:52:46;;;;;;;5.87;2.80;;;14.10;99.90;;;;;;5039821;28;20250;-80
2023/01/01 06:55:13;;;;;;;6.63;2.87;;;14.10;99.90;;;;;;5035568;28;20243;-80
2023/01/01 06:57:39;;;;;;;9.13;2.83;;;14.10;99.90;;;;;;5024807;28;20768;-80
2023/01/01 07:00:07;;;;;;;8.17;2.70;;;14.10;99.90;;;;;;5029524;28;20224;-80
2023/01/01 07:02:34;;;;;;;8.10;2.77;;;14.10;99.90;;;;;;5040036;28;20238;-79
2023/01/01 07:05:01;;;;;;;7.13;2.87;;;14.10;99.90;;;;;;5023051;28;20227;-80
2023/01/01 07:07:28;;;;;;;7.53;2.60;;;14.10;99.80;;;;;;5018608;28;20227;-80
2023/01/01 07:09:55;;;;;;;8.17;2.50;;;14.10;99.80;;;;;;5032399;28;20969;-80
2023/01/01 07:12:22;;;;;;;6.80;2.20;;;14.10;99.70;;;;;;5019194;28;20970;-80
2023/01/01 07:14:49;;;;;;;7.03;3.07;;;14.10;99.90;;;;;;5035818;28;20224;-80
2023/01/01 07:17:15;;;;;;;8.60;2.60;;;14.00;99.60;;;;;;5030514;28;20223;-81
2023/01/01 07:19:45;;;;;;;8.60;2.80;;;14.00;99.70;;;;;;5036417;28;20231;-81
2023/01/01 07:22:12;;;;;;;8.97;2.70;;;14.00;99.80;;;;;;5035335;28;20656;-81
2023/01/01 07:24:39;;;;;;;7.07;2.47;;;14.00;99.70;;;;;;5018915;28;20235;-80
2023/01/01 07:27:07;;;;;;;5.93;2.20;;;13.90;99.50;;;;;;5033792;28;20215;-81
2023/01/01 07:29:34;;;;;;;9.87;2.17;;;13.90;99.40;;;;;;5016337;28;20440;-81
2023/01/01 07:32:02;;;;;;;7.17;2.07;;;13.90;99.70;;;;;;5032000;28;20226;-80
2023/01/01 07:34:29;;;;;;;6.13;2.20;;;13.90;99.70;;;;;;5034617;28;20305;-80
2023/01/01 07:36:56;;;;;;;6.07;2.27;;;13.80;99.60;;;;;;5018435;28;20222;-80
2023/01/01 07:39:22;;;;;;;7.87;2.17;;;13.80;99.70;;;;;;5031197;28;20737;-80
2023/01/01 07:41:49;;;;;;;4.90;1.87;;;13.80;99.70;;;;;;5032460;28;20803;-80
2023/01/01 07:44:17;;;;;;;4.40;1.97;;;13.80;99.80;;;;;;5030105;28;20229;-80
2023/01/01 07:46:44;;;;;;;10.23;2.80;;;13.70;99.70;;;;;;5037647;28;21287;-80
2023/01/01 07:49:10;;;;;;;6.30;1.77;;;13.70;99.60;;;;;;5029609;28;20230;-81
2023/01/01 07:51:37;;;;;;;6.30;1.90;;;13.70;99.70;;;;;;5034390;28;20232;-82
2023/01/01 07:54:04;;;;;;;4.17;1.53;;;13.70;99.40;;;;;;5049812;28;20230;-82
2023/01/01 07:56:31;;;;;;;3.63;1.93;;;13.60;99.70;;;;;;5018086;28;20230;-82
2023/01/01 07:58:57;;;;;;;5.27;2.20;;;13.60;99.50;;;;;;5029411;28;20234;-82
2023/01/01 08:01:25;;;;;;;7.27;1.87;;;13.60;99.40;;;;;;5023222;28;20238;-82
2023/01/01 08:03:52;;;;;;;4.67;1.80;;;13.60;99.30;;;;;;5047440;28;20236;-82
2023/01/01 08:06:21;;;;;;;5.67;1.80;;;13.60;99.40;;;;;;5047720;28;20229;-82
2023/01/01 08:08:47;;;;;;;5.57;1.80;;;13.60;99.20;;;;;;5030215;28;20878;-83
2023/01/01 08:11:14;;;;;;;5.83;1.70;;;13.60;99.20;;;;;;5017716;28;20582;-82
2023/01/01 08:13:41;;;;;;;3.57;1.57;;;13.60;99.30;;;;;;5029756;28;20225;-81
2023/01/01 08:16:08;;;;;;;6.00;1.93;;;13.60;99.20;;;;;;5029392;28;20221;-82
2023/01/01 08:18:36;;;;;;;4.30;1.63;;;13.50;99.10;;;;;;5029900;28;20243;-82
2023/01/01 08:21:03;;;;;;;2.80;1.53;;;13.50;99.30;;;;;;5048179;28;20231;-82
2023/01/01 08:23:30;;;;;;;4.70;1.80;;;13.50;99.00;;;;;;5046402;28;20233;-81
2023/01/01 08:25:59;;;;;;;6.87;1.60;;;13.50;99.30;;;;;;5030321;28;20245;-82
2023/01/01 08:28:26;;;;;;;4.53;1.60;;;13.50;99.10;;;;;;5041055;28;20229;-80
2023/01/01 08:30:52;;;;;;;3.97;1.50;;;13.50;99.20;;;;;;5041288;28;20324;-83
2023/01/01 08:33:20;;;;;;;3.73;1.50;;;13.40;99.20;;;;;;5021458;28;20315;-83
2023/01/01 08:35:48;;;;;;;4.23;1.23;;;13.50;99.30;;;;;;5021651;28;20229;-82
2023/01/01 08:38:15;;;;;;;3.33;1.27;;;13.50;99.00;;;;;;5035989;28;20218;-84
2023/01/01 08:40:41;;;;;;;5.47;1.47;;;13.50;99.20;;;;;;5022782;28;20230;-83
2023/01/01 08:43:08;;;;;;;1.77;1.10;;;13.50;99.00;;;;;;5033042;28;20242;-82
2023/01/01 08:45:35;;;;;;;5.60;1.70;;;13.50;98.70;;;;;;5029391;28;20227;-84
2023/01/01 08:48:01;;;;;;;3.97;1.30;;;13.50;98.80;;;;;;5037376;28;20311;-84
2023/01/01 08:50:28;;;;;;;3.43;1.17;;;13.50;98.70;;;;;;5019817;28;20225;-82
2023/01/01 08:52:57;;;;;;;4.10;1.47;;;13.50;98.90;;;;;;5043348;28;20222;-82
2023/01/01 08:55:24;;;;;;;4.27;1.57;;;13.50;98.70;;;;;;5035466;28;20257;-82
2023/01/01 08:57:51;;;;;;;2.53;1.40;;;13.50;98.60;;;;;;5037920;28;20725;-81
2023/01/01 09:00:18;;;;;;;2.70;1.23;;;13.50;98.80;;;;;;5016436;28;20704;-81
2023/01/01 09:02:44;;;;;;;4.67;1.43;;;13.50;98.90;;;;;;5038624;28;20239;-80
2023/01/01 09:05:11;;;;;;;5.83;1.57;;;13.50;98.70;;;;;;5031477;28;20219;-80
2023/01/01 09:07:38;;;;;;;3.80;1.40;;;13.50;98.90;;;;;;5012839;28;20223;-79
2023/01/01 09:10:07;;;;;;;3.40;1.40;;;13.50;98.70;;;;;;5026714;28;20316;-79
2023/01/01 09:12:35;;;;;;;5.13;1.40;;;13.50;98.90;;;;;;5032775;28;20228;-79
2023/01/01 09:15:03;;;;;;;3.77;1.30;;;13.50;99.00;;;;;;5022478;28;20227;-79
2023/01/01 09:17:30;;;;;;;4.67;1.40;;;13.60;98.40;;;;;;5022276;28;20539;-79
2023/01/01 09:19:56;;;;;;;5.43;1.57;;;13.60;98.40;;;;;;5029203;28;20765;-79
2023/01/01 09:22:23;;;;;;;3.73;1.17;;;13.60;98.30;;;;;;5029603;28;20252;-79
2023/01/01 09:24:50;;;;;;;2.13;1.17;;;13.60;98.30;;;;;;5032923;28;20813;-79
2023/01/01 09:27:18;;;;;;;3.27;1.20;;;13.60;98.30;;;;;;5014613;28;20458;-79
2023/01/01 09:29:44;;;;;;;2.27;1.10;;;13.60;98.10;;;;;;5025786;28;20803;-79
2023/01/01 09:32:11;;;;;;;3.80;1.20;;;13.60;98.10;;;;;;5028795;28;20656;-79
2023/01/01 09:34:38;;;;;;;3.20;1.10;;;13.60;98.00;;;;;;5025387;28;20241;-79
2023/01/01 09:37:04;;;;;;;6.53;1.30;;;13.60;98.00;;;;;;5025563;28;20217;-79
2023/01/01 09:39:31;;;;;;;5.87;1.37;;;13.50;98.00;;;;;;5029948;28;20253;-79
2023/01/01 09:42:16;;;;;;;4.80;1.27;;;13.50;98.00;;;;;;5025983;28;20229;-79
2023/01/01 09:45:02;;;;;;;2.53;1.10;;;13.50;98.10;;;;;;5024106;28;20329;-79
2023/01/01 09:47:32;;;;;;;4.77;1.60;;;13.50;97.90;;;;;;5033008;28;20236;-79
2023/01/01 09:50:03;;;;;;;3.93;1.10;;;13.60;97.90;;;;;;5034118;28;20234;-79
2023/01/01 09:52:40;;;;;;;3.67;1.10;;;13.60;97.70;;;;;;5037410;28;20231;-79
2023/01/01 09:55:17;;;;;;;5.93;1.13;;;13.60;97.40;;;;;;5023357;28;20222;-79
2023/01/01 09:57:44;;;;;;;5.27;1.30;;;13.60;97.10;;;;;;5030242;28;20347;-79
2023/01/01 10:00:17;;;;;;;2.83;1.10;;;13.60;97.40;;;;;;5035086;28;20215;-79
2023/01/01 10:03:01;;;;;;;4.57;1.37;;;13.60;97.00;;;;;;5026673;28;20323;-80
2023/01/01 10:05:37;;;;;;;2.60;1.00;;;13.60;96.80;;;;;;5029639;28;20239;-80
2023/01/01 10:08:12;;;;;;;2.47;0.80;;;13.60;97.20;;;;;;5024708;28;20225;-81
2023/01/01 10:10:41;;;;;;;2.67;1.07;;;13.60;97.00;;;;;;5031355;28;20611;-80
2023/01/01 10:13:21;;;;;;;4.30;1.37;;;13.60;97.10;;;;;;5034823;28;21241;-81
2023/01/01 10:15:55;;;;;;;3.73;1.13;;;13.70;96.90;;;;;;5014796;28;20833;-80
2023/01/01 10:18:25;;;;;;;6.20;1.20;;;13.60;97.10;;;;;;5035166;28;20245;-80
2023/01/01 10:21:00;;;;;;;3.00;1.20;;;13.70;97.30;;;;;;5036106;28;20231;-80
2023/01/01 10:23:34;;;;;;;3.60;1.70;;;13.70;97.50;;;;;;5032723;28;20862;-81
2023/01/01 10:26:08;;;;;;;3.83;1.47;;;13.70;97.80;;;;;;5032233;28;20232;-81
2023/01/01 10:28:43;;;;;;;4.43;1.20;;;13.70;97.90;;;;;;5031069;28;20230;-81
2023/01/01 10:31:16;;;;;;;3.83;1.80;;;13.70;98.00;;;;;;5028541;28;20233;-81
2023/01/01 10:33:43;;;;;;;7.53;1.93;;;13.70;98.00;;;;;;5015970;28;20227;-81
2023/01/01 10:36:14;;;;;;;3.63;1.37;;;13.70;98.20;;;;;;5035612;28;20230;-80
2023/01/01 10:38:41;;;;;;;3.43;1.33;;;13.70;98.10;;;;;;5035756;28;20759;-80
2023/01/01 10:41:10;;;;;;;3.50;1.50;;;13.70;98.20;;;;;;5065093;23;20225;-79
2023/01/01 10:43:37;;;;;;;4.83;1.50;;;13.70;98.00;;;;;;5021471;28;20822;-80
2023/01/01 10:46:05;;;;;;;2.93;1.40;;;13.70;97.30;;;;;;5023548;28;20234;-80
2023/01/01 10:48:35;;;;;;;4.17;1.40;;;13.70;97.00;;;;;;5022036;28;20224;-82
2023/01/01 10:51:06;;;;;;;3.97;1.27;;;13.70;96.70;;;;;;5022379;28;20256;-82
2023/01/01 10:53:36;;;;;;;3.67;0.97;;;13.70;96.50;;;;;;5020955;28;20297;-82
2023/01/01 10:56:06;;;;;;;3.73;1.10;;;13.70;96.50;;;;;;5022543;28;20252;-82
2023/01/01 10:58:36;;;;;;;6.30;1.63;;;13.80;96.40;;;;;;5021525;28;20544;-83
2023/01/01 11:01:05;;;;;;;4.73;1.10;;;13.80;96.10;;;;;;5022513;28;20643;-83
2023/01/01 11:03:32;;;;;;;3.20;1.27;;;13.90;95.90;;;;;;5023430;28;20732;-83
2023/01/01 11:06:06;;;;;;;4.10;1.63;;;13.90;95.70;;;;;;5023878;28;20228;-83
2023/01/01 11:08:35;;;;;;;3.93;1.63;;;14.00;95.70;;;;;;5022301;28;20220;-82
2023/01/01 11:11:05;;;;;;;3.63;1.13;;;14.00;95.70;;;;;;5027341;28;20235;-83
2023/01/01 11:13:33;;;;;;;2.30;1.20;;;14.10;95.50;;;;;;5024498;28;20768;-83
2023/01/01 11:16:00;;;;;;;1.90;0.80;;;14.10;95.20;;;;;;5025358;28;20231;-83
2023/01/01 11:18:34;;;;;;;3.57;1.20;;;14.10;95.40;;;;;;5024938;28;20235;-83
2023/01/01 11:21:02;;;;;;;4.63;1.30;;;14.20;95.30;;;;;;5027266;28;20584;-83
2023/01/01 11:23:33;;;;;;;2.50;1.03;;;14.20;95.40;;;;;;5027026;28;20818;-82
2023/01/01 11:26:06;;;;;;;6.87;1.77;;;14.20;95.30;;;;;;5026982;28;20841;-83
2023/01/01 11:28:34;;;;;;;4.17;1.77;;;14.20;95.40;;;;;;5024649;28;20223;-84
2023/01/01 11:31:10;;;;;;;4.63;1.33;;;14.20;95.20;;;;;;5024334;28;20239;-83
2023/01/01 11:33:44;;;;;;;4.70;1.90;;;14.20;94.20;;;;;;5021435;28;20853;-84
2023/01/01 11:36:11;;;;;;;3.10;1.47;;;14.20;94.20;;;;;;5022671;28;20223;-83
2023/01/01 11:38:39;;;;;;;3.57;1.43;;;14.20;94.40;;;;;;5029796;28;20324;-83
2023/01/01 11:41:07;;;;;;;3.23;1.00;;;14.20;94.10;;;;;;5023410;28;20319;-82
2023/01/01 11:43:39;;;;;;;5.47;1.50;;;14.10;94.20;;;;;;5024725;28;20233;-82
2023/01/01 11:46:09;;;;;;;4.07;1.03;;;14.10;94.10;;;;;;5044849;28;20306;-83
2023/01/01 11:48:36;;;;;;;3.43;1.17;;;14.10;93.90;;;;;;5044579;28;20327;-82
2023/01/01 11:51:07;;;;;;;4.30;1.10;;;14.00;93.70;;;;;;5042729;28;20320;-83
2023/01/01 11:53:36;;;;;;;4.07;0.93;;;13.90;93.50;;;;;;5046256;23;20289;-90
2023/01/01 11:56:12;;;;;;;6.20;1.37;;;13.90;93.80;;;;;;4992803;28;20677;-90
2023/01/01 11:58:46;;;;;;;4.20;1.43;;;13.90;93.90;;;;;;5029417;28;20467;-91
2023/01/01 12:01:21;;;;;;;3.70;1.30;;;13.80;93.90;;;;;;5001268;28;20873;-90
2023/01/01 12:03:52;;;;;;;2.17;0.93;;;13.80;93.80;;;;;;5010138;28;20239;-89
2023/01/01 12:06:23;;;;;;;4.47;1.50;;;13.70;94.10;;;;;;4990936;28;20836;-90
2023/01/01 12:09:02;;;;;;;4.90;1.17;;;13.70;93.90;;;;;;4999488;28;20255;-91
2023/01/01 12:11:34;;;;;;;5.03;1.20;;;13.60;94.00;;;;;;4994030;28;20236;-88
2023/01/01 12:14:13;;;;;;;3.00;0.80;;;13.60;93.90;;;;;;4994102;28;20431;-94
2023/01/01 12:16:50;;;;;;;3.67;1.17;;;13.50;93.60;;;;;;5025159;28;20239;-90
2023/01/01 12:19:21;;;;;;;5.27;1.43;;;13.50;93.80;;;;;;5016410;28;20230;-92
2023/01/01 12:21:51;;;;;;;6.27;1.60;;;13.40;93.80;;;;;;5003864;28;20227;-93
2023/01/01 12:24:18;;;;;;;4.03;1.30;;;13.40;94.20;;;;;;5000333;28;20682;-93
2023/01/01 12:27:00;;;;;;;3.37;0.97;;;13.40;94.20;;;;;;5015542;28;20284;-93
2023/01/01 12:29:45;;;;;;;3.73;1.13;;;13.40;94.10;;;;;;5016493;28;20656;-93
2023/01/01 12:32:18;;;;;;;4.13;1.20;;;13.50;94.20;;;;;;5024615;28;20220;-93
2023/01/01 12:34:52;;;;;;;2.77;0.90;;;13.40;94.70;;;;;;5022181;28;20222;-92
2023/01/01 12:43:01;;;;;;;3.50;0.80;;;13.50;94.50;;;;;;4965836;28;20237;-79
2023/01/01 12:45:46;;;;;;;2.20;0.87;;;13.50;94.50;;;;;;4949424;28;20242;-79
2023/01/01 12:48:49;;;;;;;4.97;1.00;;;13.50;94.80;;;;;;4973027;28;20233;-80
2023/01/01 12:51:28;;;;;;;3.67;0.90;;;13.50;94.60;;;;;;4875939;29;20247;-80
2023/01/01 12:54:04;;;;;;;3.27;0.90;;;13.50;94.50;;;;;;4948264;28;20233;-79
2023/01/01 12:56:42;;;;;;;3.50;1.13;;;13.40;94.50;;;;;;4976823;28;20445;-79
2023/01/01 12:59:15;;;;;;;2.63;1.10;;;13.40;94.70;;;;;;4971497;28;20324;-80
2023/01/01 13:01:43;;;;;;;3.77;1.50;;;13.30;94.60;;;;;;4972236;28;21050;-79
2023/01/01 13:04:12;;;;;;;2.07;0.70;;;13.30;94.90;;;;;;4958566;28;20231;-80
2023/01/01 13:06:43;;;;;;;2.23;0.70;;;13.20;95.00;;;;;;4972684;28;20681;-80